createdAt,value
2022-10-24T00:00:43.810Z,69.40
2022-10-24T00:03:11.276Z,69.46
2022-10-24T00:05:42.051Z,69.12
2022-10-24T00:08:09.090Z,69.01
2022-10-24T00:10:36.936Z,69.01
2022-10-24T00:13:04.016Z,68.90
2022-10-24T00:15:30.746Z,68.66
2022-10-24T00:17:57.156Z,68.54
2022-10-24T00:20:23.490Z,68.28
2022-10-24T00:22:49.926Z,68.22
2022-10-24T00:25:16.468Z,68.24
2022-10-24T00:27:42.819Z,68.28
2022-10-24T00:30:09.638Z,68.57
2022-10-24T00:32:36.051Z,68.76
2022-10-24T00:35:03.110Z,68.77
2022-10-24T00:37:29.474Z,69.11
2022-10-24T00:39:55.834Z,69.17
2022-10-24T00:42:22.759Z,69.29
2022-10-24T00:44:52.971Z,69.04
2022-10-24T00:47:22.157Z,69.30
2022-10-24T00:50:04.729Z,69.13
2022-10-24T00:52:37.019Z,68.96
2022-10-24T00:55:05.606Z,69.21
2022-10-24T00:57:45.389Z,69.13
2022-10-24T01:00:16.751Z,69.32
2022-10-24T01:02:43.805Z,69.31
2022-10-24T01:05:11.438Z,69.50
2022-10-24T01:07:56.484Z,69.36
2022-10-24T01:10:56.164Z,69.07
2022-10-24T01:13:36.014Z,68.93
2022-10-24T01:16:20.747Z,68.67
2022-10-24T01:21:35.311Z,68.46
2022-10-24T01:24:28.661Z,68.43
2022-10-24T01:27:21.762Z,68.12
2022-10-24T01:29:50.502Z,68.44
2022-10-24T01:32:30.811Z,68.49
2022-10-24T01:35:03.453Z,68.45
2022-10-24T01:37:37.580Z,68.56
2022-10-24T01:40:13.082Z,68.45
2022-10-24T01:42:42.472Z,68.55
2022-10-24T01:45:13.677Z,68.50
2022-10-24T01:47:46.354Z,68.85
2022-10-24T01:50:15.419Z,68.83
2022-10-24T01:52:44.824Z,69.00
2022-10-24T01:55:12.179Z,68.96
2022-10-24T01:57:39.683Z,68.81
2022-10-24T02:00:08.309Z,69.04
2022-10-24T02:02:39.660Z,69.36
2022-10-24T02:05:18.899Z,69.15
2022-10-24T02:07:50.980Z,69.14
2022-10-24T02:10:23.438Z,69.14
2022-10-24T02:12:54.199Z,69.08
2022-10-24T02:15:33.650Z,69.25
2022-10-24T02:18:01.270Z,69.24
2022-10-24T02:20:43.591Z,69.16
2022-10-24T02:23:20.062Z,69.16
2022-10-24T02:25:52.036Z,69.23
2022-10-24T02:28:22.964Z,69.09
2022-10-24T02:30:56.232Z,69.06
2022-10-24T02:33:23.475Z,69.20
2022-10-24T02:35:50.329Z,69.15
2022-10-24T02:38:30.416Z,69.16
2022-10-24T02:41:01.230Z,69.63
2022-10-24T02:43:28.975Z,69.06
2022-10-24T02:45:57.887Z,69.26
2022-10-24T02:48:30.861Z,69.08
2022-10-24T02:50:58.416Z,69.19
2022-10-24T02:53:26.315Z,69.32
2022-10-24T02:55:53.014Z,69.42
2022-10-24T02:58:19.659Z,69.34
2022-10-24T03:00:46.234Z,69.61
2022-10-24T03:03:13.030Z,69.19
2022-10-24T03:05:39.398Z,69.27
2022-10-24T03:08:05.940Z,68.81
2022-10-24T03:10:32.537Z,69.36
2022-10-24T03:12:58.870Z,69.23
2022-10-24T03:15:25.203Z,69.33
2022-10-24T03:17:51.669Z,69.29
2022-10-24T03:20:18.085Z,68.95
2022-10-24T03:22:44.497Z,68.84
2022-10-24T03:25:11.750Z,68.85
2022-10-24T03:27:38.391Z,68.98
2022-10-24T03:30:05.434Z,68.88
2022-10-24T03:32:34.164Z,68.99
2022-10-24T03:35:01.215Z,69.16
2022-10-24T03:37:27.933Z,69.02
2022-10-24T03:39:54.474Z,68.85
2022-10-24T03:42:20.988Z,68.97
2022-10-24T03:44:47.529Z,68.78
2022-10-24T03:47:13.970Z,68.84
2022-10-24T03:49:40.312Z,68.79
2022-10-24T03:52:07.027Z,68.68
2022-10-24T03:54:34.530Z,68.65
2022-10-24T03:57:01.107Z,68.53
2022-10-24T03:59:27.571Z,68.69
2022-10-24T04:01:54.153Z,68.54
2022-10-24T04:04:20.632Z,68.38
2022-10-24T04:06:47.092Z,68.48
2022-10-24T04:09:13.506Z,68.03
2022-10-24T04:11:39.917Z,68.38
2022-10-24T04:14:06.452Z,68.41
2022-10-24T04:16:35.035Z,68.19
2022-10-24T04:19:02.042Z,68.28
2022-10-24T04:21:28.446Z,68.39
2022-10-24T04:23:54.949Z,68.40
2022-10-24T04:26:21.382Z,68.03
2022-10-24T04:28:48.235Z,68.18
2022-10-24T04:31:17.057Z,68.13
2022-10-24T04:33:46.339Z,67.92
2022-10-24T04:36:12.847Z,68.15
2022-10-24T04:38:39.314Z,68.09
2022-10-24T04:41:07.397Z,67.99
2022-10-24T04:43:36.270Z,67.91
2022-10-24T04:46:02.785Z,68.02
2022-10-24T04:48:29.525Z,68.02
2022-10-24T04:50:55.922Z,68.06
2022-10-24T04:53:22.341Z,67.96
2022-10-24T04:55:48.734Z,67.97
2022-10-24T04:58:15.157Z,67.83
2022-10-24T05:00:46.432Z,67.74
2022-10-24T05:03:13.509Z,67.70
2022-10-24T05:05:39.877Z,67.88
2022-10-24T05:08:06.262Z,68.02
2022-10-24T05:10:32.653Z,67.86
2022-10-24T05:12:59.195Z,68.02
2022-10-24T05:15:25.587Z,67.70
2022-10-24T05:17:52.067Z,67.72
2022-10-24T05:20:18.587Z,67.75
2022-10-24T05:22:45.150Z,67.78
2022-10-24T05:25:11.780Z,67.63
2022-10-24T05:27:38.190Z,67.49
2022-10-24T05:30:05.538Z,67.62
2022-10-24T05:32:33.739Z,67.59
2022-10-24T05:35:02.395Z,67.56
2022-10-24T05:39:58.094Z,67.47
2022-10-24T05:42:24.497Z,67.47
2022-10-24T05:44:51.009Z,67.39
2022-10-24T05:47:17.533Z,67.38
2022-10-24T05:49:43.975Z,67.33
2022-10-24T05:52:10.334Z,67.45
2022-10-24T05:54:48.533Z,67.53
2022-10-24T05:57:23.255Z,67.44
2022-10-24T05:59:49.675Z,67.08
2022-10-24T06:02:20.813Z,67.33
2022-10-24T06:04:48.275Z,67.45
2022-10-24T06:07:14.630Z,67.51
2022-10-24T06:09:41.679Z,67.94
2022-10-24T06:12:10.065Z,67.74
2022-10-24T06:14:38.194Z,67.68
2022-10-24T06:17:11.982Z,67.94
2022-10-24T06:19:39.105Z,67.45
2022-10-24T06:22:06.522Z,67.40
2022-10-24T06:24:37.510Z,67.29
2022-10-24T06:27:04.910Z,66.77
2022-10-24T06:29:31.372Z,66.26
2022-10-24T06:31:57.880Z,66.36
2022-10-24T06:34:24.407Z,66.38
2022-10-24T06:36:50.952Z,66.02
2022-10-24T06:39:17.611Z,66.05
2022-10-24T06:41:44.019Z,65.99
2022-10-24T06:44:11.204Z,65.65
2022-10-24T06:46:38.122Z,65.61
2022-10-24T06:49:05.061Z,65.65
2022-10-24T06:51:31.802Z,65.30
2022-10-24T06:53:58.973Z,65.24
2022-10-24T06:56:25.363Z,65.09
2022-10-24T06:58:51.696Z,64.77
2022-10-24T07:01:21.875Z,64.70
2022-10-24T07:03:49.173Z,64.16
2022-10-24T07:06:18.480Z,64.22
2022-10-24T07:08:45.629Z,63.68
2022-10-24T07:11:11.965Z,63.47
2022-10-24T07:13:38.909Z,63.48
2022-10-24T07:16:06.644Z,63.81
2022-10-24T07:18:33.059Z,63.73
2022-10-24T07:21:08.386Z,63.59
2022-10-24T07:23:35.628Z,63.34
2022-10-24T07:26:10.476Z,63.35
2022-10-24T07:28:38.002Z,63.17
2022-10-24T07:31:05.292Z,63.06
2022-10-24T07:33:32.721Z,62.80
2022-10-24T07:35:59.087Z,62.81
2022-10-24T07:38:25.978Z,62.38
2022-10-24T07:40:52.434Z,62.46
2022-10-24T07:43:18.792Z,62.61
2022-10-24T07:45:49.090Z,61.92
2022-10-24T07:48:19.526Z,61.88
2022-10-24T07:50:47.514Z,61.81
2022-10-24T07:53:14.563Z,61.23
2022-10-24T07:55:43.134Z,61.30
2022-10-24T07:58:11.020Z,60.96
2022-10-24T08:00:40.119Z,60.88
2022-10-24T08:03:10.551Z,60.78
2022-10-24T08:05:39.612Z,60.72
2022-10-24T08:08:35.734Z,60.60
2022-10-24T08:10:52.490Z,60.72
2022-10-24T08:13:18.815Z,60.27
2022-10-24T08:15:45.131Z,60.26
2022-10-24T08:18:11.473Z,60.02
2022-10-24T08:20:37.886Z,60.29
2022-10-24T08:23:04.247Z,60.26
2022-10-24T08:25:30.589Z,60.14
2022-10-24T08:27:56.935Z,59.79
2022-10-24T08:30:24.531Z,60.03
2022-10-24T08:32:50.969Z,59.35
2022-10-24T08:35:19.826Z,59.88
2022-10-24T08:37:46.166Z,59.12
2022-10-24T08:40:17.897Z,59.37
2022-10-24T08:42:45.585Z,59.35
2022-10-24T08:45:44.468Z,59.33
2022-10-24T08:48:16.629Z,59.12
2022-10-24T08:50:49.235Z,59.21
2022-10-24T08:53:23.611Z,58.70
2022-10-24T08:55:55.064Z,58.58
2022-10-24T08:58:27.694Z,58.24
2022-10-24T09:00:59.576Z,58.09
2022-10-24T09:03:54.887Z,58.04
2022-10-24T09:06:27.658Z,57.58
2022-10-24T09:09:00.049Z,57.05
2022-10-24T09:11:36.756Z,56.75
2022-10-24T09:14:12.033Z,56.53
2022-10-24T09:16:42.186Z,56.73
2022-10-24T09:19:15.270Z,56.59
2022-10-24T09:21:43.230Z,56.05
2022-10-24T09:24:52.822Z,56.15
2022-10-24T09:27:24.010Z,56.20
2022-10-24T09:29:51.780Z,55.32
2022-10-24T09:32:21.383Z,56.00
2022-10-24T09:34:49.476Z,55.35
2022-10-24T09:37:40.323Z,55.86
2022-10-24T09:40:18.839Z,55.54
2022-10-24T09:42:56.490Z,54.91
2022-10-24T09:45:39.448Z,54.93
2022-10-24T09:48:30.136Z,54.35
2022-10-24T09:50:58.123Z,54.14
2022-10-24T09:53:34.356Z,54.54
2022-10-24T09:56:11.610Z,54.19
2022-10-24T09:58:38.942Z,53.63
2022-10-24T10:01:18.462Z,54.26
2022-10-24T10:04:06.123Z,54.28
2022-10-24T10:06:35.109Z,53.63
2022-10-24T10:09:01.603Z,53.77
2022-10-24T10:11:35.086Z,53.43
2022-10-24T10:14:16.187Z,53.32
2022-10-24T10:16:42.527Z,52.82
2022-10-24T10:19:20.006Z,52.78
2022-10-24T10:22:01.978Z,52.40
2022-10-24T10:24:40.488Z,52.14
2022-10-24T10:27:30.200Z,52.18
2022-10-24T10:30:11.824Z,52.54
2022-10-24T10:32:48.383Z,52.25
2022-10-24T10:35:20.958Z,51.67
2022-10-24T10:38:07.095Z,52.24
2022-10-24T10:41:05.880Z,52.33
2022-10-24T10:43:42.983Z,52.01
2022-10-24T10:46:15.287Z,51.53
2022-10-24T10:49:19.148Z,52.57
2022-10-24T10:51:57.134Z,52.28
2022-10-24T10:54:46.787Z,51.74
2022-10-24T10:57:29.494Z,51.36
2022-10-24T11:00:12.766Z,51.39
2022-10-24T11:03:06.780Z,51.46
2022-10-24T11:05:47.955Z,50.91
2022-10-24T11:08:19.164Z,50.51
2022-10-24T11:10:53.917Z,50.58
2022-10-24T11:13:52.809Z,51.43
2022-10-24T11:16:28.853Z,50.96
2022-10-24T11:19:02.002Z,50.53
2022-10-24T11:21:32.886Z,50.55
2022-10-24T11:24:17.216Z,51.00
2022-10-24T11:26:51.155Z,50.34
2022-10-24T11:29:17.498Z,49.91
2022-10-24T11:31:49.482Z,50.37
2022-10-24T11:34:23.951Z,50.28
2022-10-24T11:36:56.014Z,50.43
2022-10-24T11:39:28.485Z,50.42
2022-10-24T11:42:05.691Z,50.16
2022-10-24T11:45:00.122Z,50.45
2022-10-24T11:47:26.403Z,49.73
2022-10-24T11:50:06.961Z,50.69
2022-10-24T11:52:40.097Z,51.05
2022-10-24T11:55:15.701Z,51.14
2022-10-24T11:57:45.676Z,50.50
2022-10-24T12:00:29.622Z,51.19
2022-10-24T12:03:31.554Z,49.90
2022-10-24T12:06:16.021Z,50.16
2022-10-24T12:08:53.360Z,50.58
2022-10-24T12:11:34.008Z,50.21
2022-10-24T12:14:21.708Z,49.56
2022-10-24T12:17:15.803Z,49.52
2022-10-24T12:19:44.209Z,49.01
2022-10-24T12:22:23.569Z,49.53
2022-10-24T12:25:03.058Z,49.25
2022-10-24T12:27:35.710Z,49.24
2022-10-24T12:30:21.775Z,49.32
2022-10-24T12:32:51.770Z,48.64
2022-10-24T12:35:31.347Z,49.09
2022-10-24T12:37:58.543Z,48.79
2022-10-24T12:40:55.714Z,49.32
2022-10-24T12:43:36.005Z,48.99
2022-10-24T12:46:25.145Z,49.33
2022-10-24T12:48:57.779Z,49.46
2022-10-24T12:51:37.128Z,48.91
2022-10-24T12:54:12.643Z,48.45
2022-10-24T12:56:51.461Z,48.87
2022-10-24T12:59:45.152Z,48.37
2022-10-24T13:02:11.591Z,47.88
2022-10-24T13:05:06.055Z,48.15
2022-10-24T13:07:38.132Z,48.46
2022-10-24T13:10:18.917Z,48.26
2022-10-24T13:13:14.930Z,48.58
2022-10-24T13:15:47.832Z,47.61
2022-10-24T13:18:45.232Z,48.56
2022-10-24T13:21:31.191Z,48.75
2022-10-24T13:24:15.939Z,48.95
2022-10-24T13:26:45.043Z,48.71
2022-10-24T13:29:36.065Z,48.39
2022-10-24T13:32:05.155Z,48.16
2022-10-24T13:34:53.478Z,48.12
2022-10-24T13:37:28.033Z,48.22
2022-10-24T13:40:00.865Z,48.15
2022-10-24T13:42:36.296Z,48.11
2022-10-24T13:45:44.246Z,48.57
2022-10-24T13:48:18.991Z,48.55
2022-10-24T13:51:17.184Z,48.30
2022-10-24T13:53:50.020Z,48.17
2022-10-24T13:56:17.066Z,48.10
2022-10-24T13:58:44.896Z,48.06
2022-10-24T14:01:19.788Z,48.33
2022-10-24T14:03:47.742Z,48.19
2022-10-24T14:06:14.515Z,48.36
2022-10-24T14:08:59.713Z,48.25
2022-10-24T14:11:32.085Z,47.79
2022-10-24T14:14:05.658Z,48.09
2022-10-24T14:16:34.746Z,47.68
2022-10-24T14:19:27.257Z,48.38
2022-10-24T14:21:57.668Z,48.16
2022-10-24T14:24:24.003Z,48.36
2022-10-24T14:26:53.517Z,48.31
2022-10-24T14:29:24.781Z,48.93
2022-10-24T14:31:58.743Z,48.78
2022-10-24T14:34:25.665Z,48.77
2022-10-24T14:36:53.235Z,48.81
2022-10-24T14:39:23.809Z,49.03
2022-10-24T14:41:52.414Z,48.92
2022-10-24T14:44:23.892Z,48.53
2022-10-24T14:47:06.004Z,48.71
2022-10-24T14:49:36.647Z,48.64
2022-10-24T14:52:11.729Z,49.09
2022-10-24T14:54:39.265Z,48.83
2022-10-24T14:57:15.646Z,49.15
2022-10-24T14:59:45.402Z,49.25
2022-10-24T15:02:28.833Z,49.06
2022-10-24T15:05:20.006Z,49.31
2022-10-24T15:08:09.090Z,49.38
2022-10-24T15:10:35.342Z,49.53
2022-10-24T15:13:10.366Z,50.16
2022-10-24T15:16:00.581Z,50.78
2022-10-24T15:18:29.832Z,51.09
2022-10-24T15:21:07.268Z,51.18
2022-10-24T15:23:36.563Z,51.42
2022-10-24T15:26:03.001Z,51.46
2022-10-24T15:28:49.355Z,51.49
2022-10-24T15:31:18.873Z,51.67
2022-10-24T15:33:45.819Z,51.36
2022-10-24T15:36:30.745Z,51.50
2022-10-24T15:39:00.591Z,51.19
2022-10-24T15:41:27.699Z,51.36
2022-10-24T15:43:54.887Z,51.66
2022-10-24T15:46:22.093Z,51.92
2022-10-24T15:48:48.582Z,51.79
2022-10-24T15:51:20.863Z,52.21
2022-10-24T15:53:49.190Z,52.16
2022-10-24T15:56:16.254Z,52.36
2022-10-24T15:58:42.953Z,52.42
2022-10-24T16:01:22.687Z,52.68
2022-10-24T16:03:49.260Z,52.77
2022-10-24T16:06:15.627Z,53.15
2022-10-24T16:08:41.963Z,53.37
2022-10-24T16:11:11.330Z,53.33
2022-10-24T16:13:37.755Z,53.66
2022-10-24T16:16:04.311Z,53.63
2022-10-24T16:18:30.667Z,53.98
2022-10-24T16:21:00.518Z,54.04
2022-10-24T16:23:27.501Z,54.10
2022-10-24T16:25:54.240Z,54.16
2022-10-24T16:28:23.570Z,54.40
2022-10-24T16:30:50.369Z,54.51
2022-10-24T16:33:17.847Z,54.70
2022-10-24T16:35:44.223Z,54.74
2022-10-24T16:38:11.648Z,54.99
2022-10-24T16:43:09.694Z,55.38
2022-10-24T16:45:36.234Z,55.39
2022-10-24T16:48:02.920Z,55.62
2022-10-24T16:50:30.478Z,55.69
2022-10-24T16:53:01.618Z,55.73
2022-10-24T16:55:29.710Z,56.01
2022-10-24T16:57:56.832Z,55.90
2022-10-24T17:00:24.308Z,56.11
2022-10-24T17:02:53.156Z,56.23
2022-10-24T17:05:22.279Z,56.26
2022-10-24T17:07:49.008Z,56.62
2022-10-24T17:10:18.384Z,56.40
2022-10-24T17:12:47.507Z,56.69
2022-10-24T17:15:16.816Z,56.50
2022-10-24T17:17:46.347Z,56.73
2022-10-24T17:20:13.122Z,56.96
2022-10-24T17:22:42.176Z,56.94
2022-10-24T17:25:17.607Z,56.83
2022-10-24T17:27:44.284Z,57.21
2022-10-24T17:30:20.873Z,57.05
2022-10-24T17:32:47.642Z,57.57
2022-10-24T17:35:16.554Z,57.55
2022-10-24T17:37:54.787Z,57.56
2022-10-24T17:40:24.690Z,58.04
2022-10-24T17:42:51.404Z,58.21
2022-10-24T17:45:21.971Z,58.01
2022-10-24T17:47:48.733Z,58.60
2022-10-24T17:50:17.078Z,58.85
2022-10-24T17:52:43.767Z,58.94
2022-10-24T17:58:10.980Z,59.24
2022-10-24T18:00:37.536Z,59.44
2022-10-24T18:03:04.207Z,59.51
2022-10-24T18:05:30.742Z,59.84
2022-10-24T18:07:58.013Z,59.97
2022-10-24T18:10:24.827Z,60.07
2022-10-24T18:12:51.409Z,60.04
2022-10-24T18:15:21.494Z,60.31
2022-10-24T18:17:48.798Z,60.26
2022-10-24T18:20:15.900Z,60.01
2022-10-24T18:22:44.022Z,60.17
2022-10-24T18:25:13.531Z,60.13
2022-10-24T18:27:41.066Z,60.40
2022-10-24T18:30:09.112Z,60.20
2022-10-24T18:32:35.800Z,60.30
2022-10-24T18:35:02.170Z,60.38
2022-10-24T18:37:28.710Z,60.43
2022-10-24T18:39:55.480Z,60.72
2022-10-24T18:42:30.239Z,60.53
2022-10-24T18:44:57.194Z,60.76
2022-10-24T18:47:25.731Z,60.88
2022-10-24T18:49:52.755Z,60.88
2022-10-24T18:52:40.949Z,60.86
2022-10-24T18:55:22.060Z,61.03
2022-10-24T18:57:50.017Z,61.17
2022-10-24T19:00:22.149Z,61.35
2022-10-24T19:03:11.860Z,61.51
2022-10-24T19:05:52.022Z,61.38
2022-10-24T19:08:23.627Z,61.76
2022-10-24T19:10:56.037Z,61.94
2022-10-24T19:13:24.346Z,62.13
2022-10-24T19:15:57.783Z,61.88
2022-10-24T19:18:25.404Z,62.01
2022-10-24T19:20:51.766Z,62.37
2022-10-24T19:23:18.309Z,62.36
2022-10-24T19:25:45.202Z,62.72
2022-10-24T19:28:16.111Z,62.53
2022-10-24T19:30:44.589Z,62.65
2022-10-24T19:33:13.117Z,62.88
2022-10-24T19:35:46.571Z,62.89
2022-10-24T19:38:18.949Z,62.75
2022-10-24T19:40:47.414Z,62.97
2022-10-24T19:43:14.020Z,63.16
2022-10-24T19:45:49.891Z,63.07
2022-10-24T19:48:17.603Z,63.08
2022-10-24T19:50:44.181Z,63.52
2022-10-24T19:53:13.076Z,63.17
2022-10-24T19:55:40.170Z,63.52
2022-10-24T19:58:14.419Z,62.73
2022-10-24T20:00:41.346Z,63.37
2022-10-24T20:03:08.043Z,63.58
2022-10-24T20:05:36.126Z,63.56
2022-10-24T20:08:02.609Z,63.69
2022-10-24T20:10:28.971Z,63.62
2022-10-24T20:12:55.430Z,63.61
2022-10-24T20:15:21.778Z,63.44
2022-10-24T20:17:48.111Z,63.72
2022-10-24T20:20:14.627Z,63.72
2022-10-24T20:22:41.887Z,63.96
2022-10-24T20:25:08.296Z,63.91
2022-10-24T20:27:38.689Z,64.16
2022-10-24T20:30:05.681Z,64.59
2022-10-24T20:32:32.081Z,64.89
2022-10-24T20:34:58.447Z,65.37
2022-10-24T20:37:24.800Z,65.54
2022-10-24T20:39:51.139Z,65.59
2022-10-24T20:42:18.570Z,65.69
2022-10-24T20:44:44.925Z,66.02
2022-10-24T20:47:11.255Z,65.63
2022-10-24T20:49:37.644Z,65.77
2022-10-24T20:52:04.163Z,65.89
2022-10-24T20:54:30.576Z,65.84
2022-10-24T20:56:56.952Z,65.84
2022-10-24T20:59:23.335Z,65.69
2022-10-24T21:01:49.814Z,65.60
2022-10-24T21:04:19.912Z,65.62
2022-10-24T21:06:47.383Z,65.49
2022-10-24T21:09:14.949Z,65.56
2022-10-24T21:11:41.289Z,65.69
2022-10-24T21:14:11.976Z,65.31
2022-10-24T21:16:38.309Z,65.76
2022-10-24T21:19:04.972Z,65.79
2022-10-24T21:21:31.517Z,65.84
2022-10-24T21:24:03.878Z,65.71
2022-10-24T21:26:34.003Z,66.00
2022-10-24T21:29:08.888Z,65.94
2022-10-24T21:31:48.184Z,65.29
2022-10-24T21:34:14.593Z,65.33
2022-10-24T21:36:40.907Z,65.57
2022-10-24T21:39:07.247Z,65.61
2022-10-24T21:41:33.713Z,65.52
2022-10-24T21:44:00.055Z,65.70
2022-10-24T21:46:29.188Z,65.30
2022-10-24T21:48:56.723Z,65.48
2022-10-24T21:51:34.843Z,65.17
2022-10-24T21:54:04.783Z,65.30
2022-10-24T21:56:33.506Z,65.14
2022-10-24T22:01:32.891Z,65.18
2022-10-24T22:04:00.119Z,65.39
2022-10-24T22:06:27.631Z,65.44
2022-10-24T22:08:54.838Z,65.56
2022-10-24T22:11:23.700Z,65.50
2022-10-24T22:13:51.287Z,65.36
2022-10-24T22:16:20.607Z,65.44
2022-10-24T22:18:47.279Z,65.67
2022-10-24T22:21:29.240Z,65.33
2022-10-24T22:23:57.187Z,65.27
2022-10-24T22:26:24.956Z,65.45
2022-10-24T22:28:52.140Z,65.66
2022-10-24T22:31:18.906Z,66.19
2022-10-24T22:33:45.359Z,66.08
2022-10-24T22:36:24.391Z,65.88
2022-10-24T22:38:54.457Z,66.23
2022-10-24T22:41:21.973Z,66.48
2022-10-24T22:43:48.909Z,66.64
2022-10-24T22:46:37.010Z,66.50
2022-10-24T22:49:28.892Z,66.65
2022-10-24T22:51:55.525Z,66.69
2022-10-24T22:54:24.163Z,66.77
2022-10-24T22:56:51.043Z,66.69
2022-10-24T22:59:17.704Z,66.62
2022-10-24T23:01:52.905Z,66.47
2022-10-24T23:04:34.413Z,66.22
2022-10-24T23:07:31.624Z,66.28
2022-10-24T23:09:58.011Z,66.39
2022-10-24T23:12:24.731Z,66.25
2022-10-24T23:14:52.119Z,66.25
2022-10-24T23:17:27.555Z,66.14
2022-10-24T23:19:55.461Z,66.20
2022-10-24T23:22:24.038Z,66.00
2022-10-24T23:24:52.363Z,66.20
2022-10-24T23:27:34.225Z,65.74
2022-10-24T23:30:08.073Z,65.76
2022-10-24T23:32:37.907Z,65.84
2022-10-24T23:35:04.798Z,65.70
2022-10-24T23:37:33.014Z,65.78
2022-10-24T23:40:21.203Z,65.61
2022-10-24T23:42:49.561Z,65.38
2022-10-24T23:45:19.244Z,64.93
2022-10-24T23:48:18.457Z,65.04
2022-10-24T23:51:20.281Z,64.80
2022-10-24T23:53:51.395Z,64.83
2022-10-24T23:56:19.697Z,65.43
2022-10-24T23:58:46.087Z,65.29
